sensor_id;sensor_type;location;lat;lon;timestamp;P1;durP1;ratioP1;P2;durP2;ratioP2
25023;SDS011;13033;50.936;5.334;2023-12-20T00:01:14;16.20;;;4.63;;
25023;SDS011;13033;50.936;5.334;2023-12-20T00:03:39;17.92;;;4.53;;
25023;SDS011;13033;50.936;5.334;2023-12-20T00:06:06;17.77;;;4.40;;
25023;SDS011;13033;50.936;5.334;2023-12-20T00:08:35;15.55;;;3.92;;
25023;SDS011;13033;50.936;5.334;2023-12-20T00:11:01;17.85;;;4.10;;
25023;SDS011;13033;50.936;5.334;2023-12-20T00:13:26;13.43;;;3.90;;
25023;SDS011;13033;50.936;5.334;2023-12-20T00:15:52;12.70;;;3.50;;
25023;SDS011;13033;50.936;5.334;2023-12-20T00:18:18;16.38;;;2.80;;
25023;SDS011;13033;50.936;5.334;2023-12-20T00:20:44;16.55;;;3.25;;
25023;SDS011;13033;50.936;5.334;2023-12-20T00:23:09;17.10;;;2.97;;
25023;SDS011;13033;50.936;5.334;2023-12-20T00:25:35;14.75;;;2.95;;
25023;SDS011;13033;50.936;5.334;2023-12-20T00:28:01;25.45;;;3.00;;
25023;SDS011;13033;50.936;5.334;2023-12-20T00:30:27;11.65;;;2.22;;
25023;SDS011;13033;50.936;5.334;2023-12-20T00:32:53;18.77;;;2.85;;
25023;SDS011;13033;50.936;5.334;2023-12-20T00:35:19;18.45;;;3.05;;
25023;SDS011;13033;50.936;5.334;2023-12-20T00:37:45;17.23;;;2.38;;
25023;SDS011;13033;50.936;5.334;2023-12-20T00:40:13;11.52;;;2.67;;
25023;SDS011;13033;50.936;5.334;2023-12-20T00:42:38;10.98;;;2.55;;
25023;SDS011;13033;50.936;5.334;2023-12-20T00:45:04;14.82;;;2.67;;
25023;SDS011;13033;50.936;5.334;2023-12-20T00:47:30;10.02;;;2.63;;
25023;SDS011;13033;50.936;5.334;2023-12-20T00:49:57;12.57;;;2.65;;
25023;SDS011;13033;50.936;5.334;2023-12-20T00:52:23;12.98;;;2.40;;
25023;SDS011;13033;50.936;5.334;2023-12-20T00:54:49;16.75;;;2.80;;
25023;SDS011;13033;50.936;5.334;2023-12-20T00:57:14;12.35;;;2.70;;
25023;SDS011;13033;50.936;5.334;2023-12-20T00:59:40;19.08;;;2.72;;
25023;SDS011;13033;50.936;5.334;2023-12-20T01:02:06;12.65;;;2.63;;
25023;SDS011;13033;50.936;5.334;2023-12-20T01:04:32;14.18;;;2.53;;
25023;SDS011;13033;50.936;5.334;2023-12-20T01:06:58;13.07;;;2.72;;
25023;SDS011;13033;50.936;5.334;2023-12-20T01:09:23;14.63;;;2.67;;
25023;SDS011;13033;50.936;5.334;2023-12-20T01:11:51;13.10;;;2.53;;
25023;SDS011;13033;50.936;5.334;2023-12-20T01:14:17;9.77;;;2.53;;
25023;SDS011;13033;50.936;5.334;2023-12-20T01:16:43;15.98;;;2.25;;
25023;SDS011;13033;50.936;5.334;2023-12-20T01:19:09;10.85;;;2.40;;
25023;SDS011;13033;50.936;5.334;2023-12-20T01:21:37;15.48;;;2.25;;
25023;SDS011;13033;50.936;5.334;2023-12-20T01:24:02;11.07;;;2.42;;
25023;SDS011;13033;50.936;5.334;2023-12-20T01:26:28;9.25;;;2.58;;
25023;SDS011;13033;50.936;5.334;2023-12-20T01:28:54;10.23;;;2.13;;
25023;SDS011;13033;50.936;5.334;2023-12-20T01:31:20;10.73;;;2.60;;
25023;SDS011;13033;50.936;5.334;2023-12-20T01:33:45;14.32;;;2.70;;
25023;SDS011;13033;50.936;5.334;2023-12-20T01:36:11;9.20;;;2.38;;
25023;SDS011;13033;50.936;5.334;2023-12-20T01:38:37;11.80;;;2.50;;
25023;SDS011;13033;50.936;5.334;2023-12-20T01:41:06;19.08;;;2.83;;
25023;SDS011;13033;50.936;5.334;2023-12-20T01:43:33;12.23;;;2.80;;
25023;SDS011;13033;50.936;5.334;2023-12-20T01:45:58;20.20;;;3.83;;
25023;SDS011;13033;50.936;5.334;2023-12-20T01:48:26;15.15;;;3.47;;
25023;SDS011;13033;50.936;5.334;2023-12-20T01:53:23;13.60;;;2.83;;
25023;SDS011;13033;50.936;5.334;2023-12-20T01:55:50;12.27;;;2.72;;
25023;SDS011;13033;50.936;5.334;2023-12-20T01:58:19;12.68;;;2.83;;
25023;SDS011;13033;50.936;5.334;2023-12-20T02:00:47;20.40;;;3.53;;
25023;SDS011;13033;50.936;5.334;2023-12-20T02:03:13;11.02;;;3.17;;
25023;SDS011;13033;50.936;5.334;2023-12-20T02:05:41;20.70;;;3.58;;
25023;SDS011;13033;50.936;5.334;2023-12-20T02:08:06;12.55;;;2.78;;
25023;SDS011;13033;50.936;5.334;2023-12-20T02:10:32;11.10;;;3.15;;
25023;SDS011;13033;50.936;5.334;2023-12-20T02:12:59;11.27;;;2.50;;
25023;SDS011;13033;50.936;5.334;2023-12-20T02:15:25;17.83;;;3.30;;
25023;SDS011;13033;50.936;5.334;2023-12-20T02:17:50;12.80;;;3.78;;
25023;SDS011;13033;50.936;5.334;2023-12-20T02:20:16;14.35;;;2.90;;
25023;SDS011;13033;50.936;5.334;2023-12-20T02:22:44;16.60;;;3.92;;
25023;SDS011;13033;50.936;5.334;2023-12-20T02:25:09;25.92;;;3.42;;
25023;SDS011;13033;50.936;5.334;2023-12-20T02:27:36;12.02;;;2.55;;
25023;SDS011;13033;50.936;5.334;2023-12-20T02:30:03;13.13;;;2.80;;
25023;SDS011;13033;50.936;5.334;2023-12-20T02:35:01;15.52;;;3.90;;
25023;SDS011;13033;50.936;5.334;2023-12-20T02:37:33;11.75;;;3.25;;
25023;SDS011;13033;50.936;5.334;2023-12-20T02:40:00;15.48;;;3.58;;
25023;SDS011;13033;50.936;5.334;2023-12-20T02:42:26;10.43;;;2.92;;
25023;SDS011;13033;50.936;5.334;2023-12-20T02:44:52;11.52;;;3.25;;
25023;SDS011;13033;50.936;5.334;2023-12-20T02:47:17;17.05;;;3.45;;
25023;SDS011;13033;50.936;5.334;2023-12-20T02:49:43;14.63;;;3.15;;
25023;SDS011;13033;50.936;5.334;2023-12-20T02:52:10;20.73;;;4.07;;
25023;SDS011;13033;50.936;5.334;2023-12-20T02:54:35;16.35;;;3.63;;
25023;SDS011;13033;50.936;5.334;2023-12-20T02:57:01;14.75;;;2.90;;
25023;SDS011;13033;50.936;5.334;2023-12-20T02:59:27;13.40;;;3.50;;
25023;SDS011;13033;50.936;5.334;2023-12-20T03:01:52;13.40;;;3.10;;
25023;SDS011;13033;50.936;5.334;2023-12-20T03:04:19;15.65;;;2.92;;
25023;SDS011;13033;50.936;5.334;2023-12-20T03:06:46;15.05;;;4.00;;
25023;SDS011;13033;50.936;5.334;2023-12-20T03:09:18;10.82;;;3.20;;
25023;SDS011;13033;50.936;5.334;2023-12-20T03:11:44;11.27;;;3.05;;
25023;SDS011;13033;50.936;5.334;2023-12-20T03:14:10;12.35;;;3.30;;
25023;SDS011;13033;50.936;5.334;2023-12-20T03:16:35;12.55;;;2.85;;
25023;SDS011;13033;50.936;5.334;2023-12-20T03:19:01;20.92;;;3.30;;
25023;SDS011;13033;50.936;5.334;2023-12-20T03:21:28;16.15;;;3.83;;
25023;SDS011;13033;50.936;5.334;2023-12-20T03:23:53;16.25;;;3.13;;
25023;SDS011;13033;50.936;5.334;2023-12-20T03:26:19;17.35;;;4.18;;
25023;SDS011;13033;50.936;5.334;2023-12-20T03:28:45;13.38;;;3.25;;
25023;SDS011;13033;50.936;5.334;2023-12-20T03:31:10;14.77;;;3.30;;
25023;SDS011;13033;50.936;5.334;2023-12-20T03:33:36;12.75;;;3.63;;
25023;SDS011;13033;50.936;5.334;2023-12-20T03:36:02;15.52;;;3.47;;
25023;SDS011;13033;50.936;5.334;2023-12-20T03:38:27;13.00;;;3.25;;
25023;SDS011;13033;50.936;5.334;2023-12-20T03:40:54;18.83;;;3.40;;
25023;SDS011;13033;50.936;5.334;2023-12-20T03:43:20;14.77;;;3.08;;
25023;SDS011;13033;50.936;5.334;2023-12-20T03:45:46;14.73;;;3.80;;
25023;SDS011;13033;50.936;5.334;2023-12-20T03:48:11;14.98;;;3.22;;
25023;SDS011;13033;50.936;5.334;2023-12-20T03:50:38;16.60;;;3.95;;
25023;SDS011;13033;50.936;5.334;2023-12-20T03:53:03;17.27;;;3.90;;
25023;SDS011;13033;50.936;5.334;2023-12-20T03:55:29;14.60;;;2.83;;
25023;SDS011;13033;50.936;5.334;2023-12-20T03:57:55;20.58;;;3.40;;
25023;SDS011;13033;50.936;5.334;2023-12-20T04:00:22;14.98;;;3.25;;
25023;SDS011;13033;50.936;5.334;2023-12-20T04:02:50;16.23;;;3.90;;
25023;SDS011;13033;50.936;5.334;2023-12-20T04:05:16;13.55;;;3.10;;
25023;SDS011;13033;50.936;5.334;2023-12-20T04:07:41;9.75;;;3.38;;
25023;SDS011;13033;50.936;5.334;2023-12-20T04:10:07;20.48;;;3.38;;
25023;SDS011;13033;50.936;5.334;2023-12-20T04:12:33;15.70;;;3.60;;
25023;SDS011;13033;50.936;5.334;2023-12-20T04:14:59;12.25;;;2.92;;
25023;SDS011;13033;50.936;5.334;2023-12-20T04:17:25;19.50;;;4.00;;
25023;SDS011;13033;50.936;5.334;2023-12-20T04:19:50;17.92;;;3.45;;
25023;SDS011;13033;50.936;5.334;2023-12-20T04:22:17;12.05;;;3.55;;
25023;SDS011;13033;50.936;5.334;2023-12-20T04:24:43;11.10;;;3.20;;
25023;SDS011;13033;50.936;5.334;2023-12-20T04:27:09;23.33;;;3.42;;
25023;SDS011;13033;50.936;5.334;2023-12-20T04:29:37;18.13;;;3.70;;
25023;SDS011;13033;50.936;5.334;2023-12-20T04:32:02;18.83;;;3.50;;
25023;SDS011;13033;50.936;5.334;2023-12-20T04:34:29;12.50;;;3.03;;
25023;SDS011;13033;50.936;5.334;2023-12-20T04:36:56;19.33;;;3.65;;
25023;SDS011;13033;50.936;5.334;2023-12-20T04:39:22;23.45;;;3.97;;
25023;SDS011;13033;50.936;5.334;2023-12-20T04:41:49;17.55;;;3.58;;
25023;SDS011;13033;50.936;5.334;2023-12-20T04:44:15;19.17;;;4.00;;
25023;SDS011;13033;50.936;5.334;2023-12-20T04:46:41;22.63;;;4.00;;
25023;SDS011;13033;50.936;5.334;2023-12-20T04:49:07;13.55;;;3.15;;
25023;SDS011;13033;50.936;5.334;2023-12-20T04:51:33;14.60;;;3.30;;
25023;SDS011;13033;50.936;5.334;2023-12-20T04:53:59;18.33;;;4.03;;
25023;SDS011;13033;50.936;5.334;2023-12-20T04:56:25;21.70;;;3.90;;
25023;SDS011;13033;50.936;5.334;2023-12-20T04:58:51;17.70;;;3.40;;
25023;SDS011;13033;50.936;5.334;2023-12-20T05:01:17;12.38;;;3.33;;
25023;SDS011;13033;50.936;5.334;2023-12-20T05:03:42;13.85;;;3.90;;
25023;SDS011;13033;50.936;5.334;2023-12-20T05:06:09;16.05;;;3.58;;
25023;SDS011;13033;50.936;5.334;2023-12-20T05:08:35;16.73;;;3.88;;
25023;SDS011;13033;50.936;5.334;2023-12-20T05:11:01;24.25;;;4.53;;
25023;SDS011;13033;50.936;5.334;2023-12-20T05:13:28;14.45;;;4.03;;
25023;SDS011;13033;50.936;5.334;2023-12-20T05:15:53;23.40;;;4.00;;
25023;SDS011;13033;50.936;5.334;2023-12-20T05:18:20;16.70;;;4.22;;
25023;SDS011;13033;50.936;5.334;2023-12-20T05:20:47;20.00;;;4.25;;
25023;SDS011;13033;50.936;5.334;2023-12-20T05:23:12;13.43;;;3.90;;
25023;SDS011;13033;50.936;5.334;2023-12-20T05:25:39;18.63;;;4.43;;
25023;SDS011;13033;50.936;5.334;2023-12-20T05:28:05;16.95;;;4.55;;
25023;SDS011;13033;50.936;5.334;2023-12-20T05:30:31;15.00;;;4.68;;
25023;SDS011;13033;50.936;5.334;2023-12-20T05:32:57;14.15;;;4.43;;
25023;SDS011;13033;50.936;5.334;2023-12-20T05:35:23;13.82;;;5.18;;
25023;SDS011;13033;50.936;5.334;2023-12-20T05:37:49;19.05;;;4.90;;
25023;SDS011;13033;50.936;5.334;2023-12-20T05:40:15;18.10;;;4.97;;
25023;SDS011;13033;50.936;5.334;2023-12-20T05:42:47;15.48;;;4.50;;
25023;SDS011;13033;50.936;5.334;2023-12-20T05:45:14;17.80;;;4.13;;
25023;SDS011;13033;50.936;5.334;2023-12-20T05:47:40;14.10;;;4.75;;
25023;SDS011;13033;50.936;5.334;2023-12-20T05:50:06;20.42;;;4.28;;
25023;SDS011;13033;50.936;5.334;2023-12-20T05:52:32;15.25;;;4.75;;
25023;SDS011;13033;50.936;5.334;2023-12-20T05:54:57;20.60;;;5.03;;
25023;SDS011;13033;50.936;5.334;2023-12-20T05:57:26;18.30;;;4.93;;
25023;SDS011;13033;50.936;5.334;2023-12-20T05:59:52;16.23;;;4.68;;
25023;SDS011;13033;50.936;5.334;2023-12-20T06:02:17;14.35;;;4.55;;
25023;SDS011;13033;50.936;5.334;2023-12-20T06:04:43;15.98;;;4.50;;
25023;SDS011;13033;50.936;5.334;2023-12-20T06:07:13;19.80;;;4.65;;
25023;SDS011;13033;50.936;5.334;2023-12-20T06:09:39;17.08;;;4.28;;
25023;SDS011;13033;50.936;5.334;2023-12-20T06:12:07;16.38;;;4.38;;
25023;SDS011;13033;50.936;5.334;2023-12-20T06:14:35;15.35;;;3.90;;
25023;SDS011;13033;50.936;5.334;2023-12-20T06:17:01;22.75;;;4.93;;
25023;SDS011;13033;50.936;5.334;2023-12-20T06:19:27;15.93;;;4.53;;
25023;SDS011;13033;50.936;5.334;2023-12-20T06:21:53;19.05;;;4.60;;
25023;SDS011;13033;50.936;5.334;2023-12-20T06:24:19;16.25;;;4.50;;
25023;SDS011;13033;50.936;5.334;2023-12-20T06:26:46;17.90;;;4.35;;
25023;SDS011;13033;50.936;5.334;2023-12-20T06:29:12;17.27;;;4.20;;
25023;SDS011;13033;50.936;5.334;2023-12-20T06:31:37;18.33;;;4.38;;
25023;SDS011;13033;50.936;5.334;2023-12-20T06:34:04;25.30;;;5.13;;
25023;SDS011;13033;50.936;5.334;2023-12-20T06:36:30;18.25;;;5.18;;
25023;SDS011;13033;50.936;5.334;2023-12-20T06:38:56;16.65;;;4.25;;
25023;SDS011;13033;50.936;5.334;2023-12-20T06:41:22;14.35;;;4.32;;
25023;SDS011;13033;50.936;5.334;2023-12-20T06:43:49;22.80;;;5.28;;
25023;SDS011;13033;50.936;5.334;2023-12-20T06:46:15;16.70;;;4.70;;
25023;SDS011;13033;50.936;5.334;2023-12-20T06:48:41;14.75;;;4.15;;
25023;SDS011;13033;50.936;5.334;2023-12-20T06:51:10;17.13;;;4.43;;
25023;SDS011;13033;50.936;5.334;2023-12-20T06:53:40;24.77;;;4.82;;
25023;SDS011;13033;50.936;5.334;2023-12-20T06:56:06;17.88;;;4.82;;
25023;SDS011;13033;50.936;5.334;2023-12-20T06:58:32;18.30;;;4.80;;
25023;SDS011;13033;50.936;5.334;2023-12-20T07:00:58;14.52;;;4.18;;
25023;SDS011;13033;50.936;5.334;2023-12-20T07:03:24;14.40;;;3.80;;
25023;SDS011;13033;50.936;5.334;2023-12-20T07:05:49;27.20;;;4.65;;
25023;SDS011;13033;50.936;5.334;2023-12-20T07:08:15;16.92;;;4.63;;
25023;SDS011;13033;50.936;5.334;2023-12-20T07:10:42;17.52;;;4.38;;
25023;SDS011;13033;50.936;5.334;2023-12-20T07:13:08;18.77;;;4.47;;
25023;SDS011;13033;50.936;5.334;2023-12-20T07:15:34;18.67;;;4.40;;
25023;SDS011;13033;50.936;5.334;2023-12-20T07:18:00;14.60;;;4.22;;
25023;SDS011;13033;50.936;5.334;2023-12-20T07:20:26;21.23;;;4.57;;
25023;SDS011;13033;50.936;5.334;2023-12-20T07:22:52;14.77;;;4.75;;
25023;SDS011;13033;50.936;5.334;2023-12-20T07:25:17;26.40;;;5.00;;
25023;SDS011;13033;50.936;5.334;2023-12-20T07:27:45;21.25;;;4.45;;
25023;SDS011;13033;50.936;5.334;2023-12-20T07:30:10;23.27;;;5.03;;
25023;SDS011;13033;50.936;5.334;2023-12-20T07:32:36;17.17;;;4.80;;
25023;SDS011;13033;50.936;5.334;2023-12-20T07:35:02;19.13;;;4.90;;
25023;SDS011;13033;50.936;5.334;2023-12-20T07:37:28;27.45;;;5.47;;
25023;SDS011;13033;50.936;5.334;2023-12-20T07:39:55;22.15;;;5.43;;
25023;SDS011;13033;50.936;5.334;2023-12-20T07:42:20;17.20;;;5.35;;
25023;SDS011;13033;50.936;5.334;2023-12-20T07:44:47;14.02;;;5.40;;
25023;SDS011;13033;50.936;5.334;2023-12-20T07:47:20;23.15;;;5.75;;
25023;SDS011;13033;50.936;5.334;2023-12-20T07:49:48;22.58;;;5.93;;
25023;SDS011;13033;50.936;5.334;2023-12-20T07:52:14;19.45;;;5.25;;
25023;SDS011;13033;50.936;5.334;2023-12-20T07:54:39;16.50;;;5.07;;
25023;SDS011;13033;50.936;5.334;2023-12-20T07:57:05;19.77;;;5.30;;
25023;SDS011;13033;50.936;5.334;2023-12-20T07:59:32;22.77;;;5.25;;
25023;SDS011;13033;50.936;5.334;2023-12-20T08:01:58;20.23;;;4.85;;
25023;SDS011;13033;50.936;5.334;2023-12-20T08:04:24;19.77;;;5.10;;
25023;SDS011;13033;50.936;5.334;2023-12-20T08:06:50;11.95;;;4.72;;
25023;SDS011;13033;50.936;5.334;2023-12-20T08:09:15;16.20;;;4.40;;
25023;SDS011;13033;50.936;5.334;2023-12-20T08:11:46;20.98;;;4.32;;
25023;SDS011;13033;50.936;5.334;2023-12-20T08:14:12;17.73;;;4.80;;
25023;SDS011;13033;50.936;5.334;2023-12-20T08:16:38;20.73;;;5.38;;
25023;SDS011;13033;50.936;5.334;2023-12-20T08:19:05;19.00;;;4.10;;
25023;SDS011;13033;50.936;5.334;2023-12-20T08:21:31;16.85;;;4.22;;
25023;SDS011;13033;50.936;5.334;2023-12-20T08:23:56;17.73;;;4.25;;
25023;SDS011;13033;50.936;5.334;2023-12-20T08:26:22;19.45;;;3.92;;
25023;SDS011;13033;50.936;5.334;2023-12-20T08:28:49;14.27;;;3.88;;
25023;SDS011;13033;50.936;5.334;2023-12-20T08:31:15;14.57;;;3.67;;
25023;SDS011;13033;50.936;5.334;2023-12-20T08:33:47;20.15;;;3.42;;
25023;SDS011;13033;50.936;5.334;2023-12-20T08:36:13;14.25;;;3.72;;
25023;SDS011;13033;50.936;5.334;2023-12-20T08:38:39;16.15;;;3.47;;
25023;SDS011;13033;50.936;5.334;2023-12-20T08:41:06;9.00;;;3.65;;
25023;SDS011;13033;50.936;5.334;2023-12-20T08:43:33;21.02;;;4.07;;
25023;SDS011;13033;50.936;5.334;2023-12-20T08:45:59;16.48;;;3.80;;
25023;SDS011;13033;50.936;5.334;2023-12-20T08:48:25;18.90;;;3.90;;
25023;SDS011;13033;50.936;5.334;2023-12-20T08:50:53;19.20;;;4.00;;
25023;SDS011;13033;50.936;5.334;2023-12-20T08:53:20;12.50;;;3.30;;
25023;SDS011;13033;50.936;5.334;2023-12-20T08:55:47;13.57;;;3.05;;
25023;SDS011;13033;50.936;5.334;2023-12-20T08:58:13;13.80;;;3.47;;
25023;SDS011;13033;50.936;5.334;2023-12-20T09:00:39;12.38;;;2.70;;
25023;SDS011;13033;50.936;5.334;2023-12-20T09:03:05;18.17;;;3.67;;
25023;SDS011;13033;50.936;5.334;2023-12-20T09:05:31;22.05;;;3.42;;
25023;SDS011;13033;50.936;5.334;2023-12-20T09:07:57;12.85;;;3.28;;
25023;SDS011;13033;50.936;5.334;2023-12-20T09:10:24;16.63;;;3.88;;
25023;SDS011;13033;50.936;5.334;2023-12-20T09:12:53;18.20;;;3.28;;
25023;SDS011;13033;50.936;5.334;2023-12-20T09:15:22;14.33;;;3.10;;
25023;SDS011;13033;50.936;5.334;2023-12-20T09:17:51;16.85;;;3.35;;
25023;SDS011;13033;50.936;5.334;2023-12-20T09:20:17;16.05;;;3.00;;
25023;SDS011;13033;50.936;5.334;2023-12-20T09:22:44;18.40;;;3.63;;
25023;SDS011;13033;50.936;5.334;2023-12-20T09:25:10;13.00;;;2.45;;
25023;SDS011;13033;50.936;5.334;2023-12-20T09:27:39;11.60;;;3.22;;
25023;SDS011;13033;50.936;5.334;2023-12-20T09:30:05;17.02;;;3.17;;
25023;SDS011;13033;50.936;5.334;2023-12-20T09:32:32;10.48;;;2.45;;
25023;SDS011;13033;50.936;5.334;2023-12-20T09:34:58;13.75;;;3.55;;
25023;SDS011;13033;50.936;5.334;2023-12-20T09:37:26;12.57;;;2.83;;
25023;SDS011;13033;50.936;5.334;2023-12-20T09:39:52;12.18;;;2.80;;
25023;SDS011;13033;50.936;5.334;2023-12-20T09:42:21;13.93;;;3.30;;
25023;SDS011;13033;50.936;5.334;2023-12-20T09:45:09;10.15;;;2.55;;
25023;SDS011;13033;50.936;5.334;2023-12-20T09:47:44;12.88;;;3.45;;
25023;SDS011;13033;50.936;5.334;2023-12-20T09:50:11;11.43;;;2.40;;
25023;SDS011;13033;50.936;5.334;2023-12-20T09:52:39;14.23;;;3.50;;
25023;SDS011;13033;50.936;5.334;2023-12-20T09:55:08;14.75;;;2.70;;
25023;SDS011;13033;50.936;5.334;2023-12-20T09:57:35;10.63;;;3.00;;
25023;SDS011;13033;50.936;5.334;2023-12-20T10:00:02;8.35;;;2.45;;
25023;SDS011;13033;50.936;5.334;2023-12-20T10:02:29;16.40;;;3.28;;
25023;SDS011;13033;50.936;5.334;2023-12-20T10:04:57;13.50;;;2.45;;
25023;SDS011;13033;50.936;5.334;2023-12-20T10:07:23;15.48;;;2.95;;
25023;SDS011;13033;50.936;5.334;2023-12-20T10:09:49;9.50;;;2.38;;
25023;SDS011;13033;50.936;5.334;2023-12-20T10:12:19;10.88;;;2.63;;
25023;SDS011;13033;50.936;5.334;2023-12-20T10:14:51;9.57;;;2.95;;
25023;SDS011;13033;50.936;5.334;2023-12-20T10:17:17;17.83;;;2.95;;
25023;SDS011;13033;50.936;5.334;2023-12-20T10:19:43;16.02;;;2.95;;
25023;SDS011;13033;50.936;5.334;2023-12-20T10:22:09;11.80;;;2.38;;
25023;SDS011;13033;50.936;5.334;2023-12-20T10:24:35;9.55;;;2.15;;
25023;SDS011;13033;50.936;5.334;2023-12-20T10:27:05;16.23;;;3.15;;
25023;SDS011;13033;50.936;5.334;2023-12-20T10:29:36;17.55;;;2.78;;
25023;SDS011;13033;50.936;5.334;2023-12-20T10:32:21;17.67;;;3.30;;
25023;SDS011;13033;50.936;5.334;2023-12-20T10:34:51;9.65;;;2.30;;
25023;SDS011;13033;50.936;5.334;2023-12-20T10:37:18;12.80;;;3.28;;
25023;SDS011;13033;50.936;5.334;2023-12-20T10:39:47;14.07;;;2.80;;
25023;SDS011;13033;50.936;5.334;2023-12-20T10:42:17;14.32;;;2.63;;
25023;SDS011;13033;50.936;5.334;2023-12-20T10:44:46;10.55;;;3.10;;
25023;SDS011;13033;50.936;5.334;2023-12-20T10:47:13;12.15;;;2.53;;
25023;SDS011;13033;50.936;5.334;2023-12-20T10:49:38;15.70;;;2.92;;
25023;SDS011;13033;50.936;5.334;2023-12-20T10:52:05;19.85;;;3.85;;
25023;SDS011;13033;50.936;5.334;2023-12-20T10:54:31;9.77;;;2.20;;
25023;SDS011;13033;50.936;5.334;2023-12-20T10:56:58;14.65;;;2.78;;
25023;SDS011;13033;50.936;5.334;2023-12-20T10:59:24;14.85;;;2.88;;
25023;SDS011;13033;50.936;5.334;2023-12-20T11:01:54;13.52;;;3.05;;
25023;SDS011;13033;50.936;5.334;2023-12-20T11:04:25;13.82;;;3.47;;
25023;SDS011;13033;50.936;5.334;2023-12-20T11:07:12;12.20;;;2.72;;
25023;SDS011;13033;50.936;5.334;2023-12-20T11:09:41;9.40;;;2.63;;
25023;SDS011;13033;50.936;5.334;2023-12-20T11:12:59;14.77;;;3.30;;
25023;SDS011;13033;50.936;5.334;2023-12-20T11:15:17;8.73;;;2.40;;
25023;SDS011;13033;50.936;5.334;2023-12-20T11:17:46;10.43;;;2.60;;
25023;SDS011;13033;50.936;5.334;2023-12-20T11:20:21;17.02;;;3.00;;
25023;SDS011;13033;50.936;5.334;2023-12-20T11:23:08;14.48;;;3.05;;
25023;SDS011;13033;50.936;5.334;2023-12-20T11:25:47;11.68;;;2.70;;
25023;SDS011;13033;50.936;5.334;2023-12-20T11:28:20;10.75;;;2.72;;
25023;SDS011;13033;50.936;5.334;2023-12-20T11:30:49;16.25;;;2.92;;
25023;SDS011;13033;50.936;5.334;2023-12-20T11:33:24;13.15;;;3.15;;
25023;SDS011;13033;50.936;5.334;2023-12-20T11:35:55;13.48;;;2.85;;
25023;SDS011;13033;50.936;5.334;2023-12-20T11:38:23;15.00;;;2.90;;
25023;SDS011;13033;50.936;5.334;2023-12-20T11:40:50;13.95;;;3.10;;
25023;SDS011;13033;50.936;5.334;2023-12-20T11:43:37;11.10;;;2.78;;
25023;SDS011;13033;50.936;5.334;2023-12-20T11:46:07;10.27;;;2.50;;
25023;SDS011;13033;50.936;5.334;2023-12-20T11:48:37;9.68;;;2.88;;
25023;SDS011;13033;50.936;5.334;2023-12-20T11:51:10;13.35;;;3.15;;
25023;SDS011;13033;50.936;5.334;2023-12-20T11:53:43;21.13;;;3.78;;
25023;SDS011;13033;50.936;5.334;2023-12-20T11:56:09;13.13;;;3.45;;
25023;SDS011;13033;50.936;5.334;2023-12-20T11:58:35;10.25;;;2.83;;
25023;SDS011;13033;50.936;5.334;2023-12-20T12:01:02;7.30;;;2.67;;
25023;SDS011;13033;50.936;5.334;2023-12-20T12:03:29;15.35;;;3.25;;
25023;SDS011;13033;50.936;5.334;2023-12-20T12:05:55;15.75;;;2.85;;
25023;SDS011;13033;50.936;5.334;2023-12-20T12:08:21;15.70;;;3.17;;
25023;SDS011;13033;50.936;5.334;2023-12-20T12:10:46;11.90;;;3.13;;
25023;SDS011;13033;50.936;5.334;2023-12-20T12:13:12;15.52;;;3.30;;
25023;SDS011;13033;50.936;5.334;2023-12-20T12:15:39;16.88;;;4.13;;
25023;SDS011;13033;50.936;5.334;2023-12-20T12:18:07;8.73;;;2.67;;
25023;SDS011;13033;50.936;5.334;2023-12-20T12:20:33;14.18;;;3.60;;
25023;SDS011;13033;50.936;5.334;2023-12-20T12:25:26;11.90;;;3.15;;
25023;SDS011;13033;50.936;5.334;2023-12-20T12:27:53;19.92;;;3.80;;
25023;SDS011;13033;50.936;5.334;2023-12-20T12:30:19;12.45;;;2.90;;
25023;SDS011;13033;50.936;5.334;2023-12-20T12:32:46;19.15;;;3.40;;
25023;SDS011;13033;50.936;5.334;2023-12-20T12:35:13;15.30;;;3.03;;
25023;SDS011;13033;50.936;5.334;2023-12-20T12:37:40;12.75;;;4.10;;
25023;SDS011;13033;50.936;5.334;2023-12-20T12:40:07;21.98;;;3.88;;
25023;SDS011;13033;50.936;5.334;2023-12-20T12:42:36;12.68;;;3.28;;
25023;SDS011;13033;50.936;5.334;2023-12-20T12:45:02;14.77;;;3.55;;
25023;SDS011;13033;50.936;5.334;2023-12-20T12:47:28;11.75;;;3.35;;
25023;SDS011;13033;50.936;5.334;2023-12-20T12:49:55;18.73;;;4.00;;
25023;SDS011;13033;50.936;5.334;2023-12-20T12:52:21;15.65;;;3.80;;
25023;SDS011;13033;50.936;5.334;2023-12-20T12:54:46;11.70;;;3.53;;
25023;SDS011;13033;50.936;5.334;2023-12-20T12:57:14;12.43;;;3.58;;
25023;SDS011;13033;50.936;5.334;2023-12-20T12:59:41;13.07;;;3.80;;
25023;SDS011;13033;50.936;5.334;2023-12-20T13:02:08;15.98;;;3.45;;
25023;SDS011;13033;50.936;5.334;2023-12-20T13:04:34;13.45;;;3.80;;
25023;SDS011;13033;50.936;5.334;2023-12-20T13:07:00;19.02;;;3.83;;
25023;SDS011;13033;50.936;5.334;2023-12-20T13:09:26;20.05;;;4.25;;
25023;SDS011;13033;50.936;5.334;2023-12-20T13:11:52;17.52;;;3.35;;
25023;SDS011;13033;50.936;5.334;2023-12-20T13:14:19;15.38;;;3.85;;
25023;SDS011;13033;50.936;5.334;2023-12-20T13:16:44;13.10;;;3.00;;
25023;SDS011;13033;50.936;5.334;2023-12-20T13:19:10;15.70;;;3.30;;
25023;SDS011;13033;50.936;5.334;2023-12-20T13:21:37;12.98;;;3.60;;
25023;SDS011;13033;50.936;5.334;2023-12-20T13:24:03;13.07;;;3.45;;
25023;SDS011;13033;50.936;5.334;2023-12-20T13:26:29;15.65;;;3.60;;
25023;SDS011;13033;50.936;5.334;2023-12-20T13:28:55;13.90;;;3.75;;
25023;SDS011;13033;50.936;5.334;2023-12-20T13:31:21;10.73;;;3.30;;
25023;SDS011;13033;50.936;5.334;2023-12-20T13:33:46;14.88;;;3.35;;
25023;SDS011;13033;50.936;5.334;2023-12-20T13:36:12;17.73;;;3.92;;
25023;SDS011;13033;50.936;5.334;2023-12-20T13:38:38;18.15;;;3.67;;
25023;SDS011;13033;50.936;5.334;2023-12-20T13:41:04;12.95;;;3.17;;
25023;SDS011;13033;50.936;5.334;2023-12-20T13:43:30;17.50;;;4.10;;
25023;SDS011;13033;50.936;5.334;2023-12-20T13:45:57;14.55;;;3.38;;
25023;SDS011;13033;50.936;5.334;2023-12-20T13:48:26;14.20;;;3.30;;
25023;SDS011;13033;50.936;5.334;2023-12-20T13:50:52;14.05;;;3.55;;
25023;SDS011;13033;50.936;5.334;2023-12-20T13:53:18;16.73;;;3.83;;
25023;SDS011;13033;50.936;5.334;2023-12-20T13:55:44;14.15;;;3.60;;
25023;SDS011;13033;50.936;5.334;2023-12-20T13:58:10;15.52;;;3.53;;
25023;SDS011;13033;50.936;5.334;2023-12-20T14:00:36;16.35;;;4.43;;
25023;SDS011;13033;50.936;5.334;2023-12-20T14:03:02;12.52;;;3.78;;
25023;SDS011;13033;50.936;5.334;2023-12-20T14:05:28;14.88;;;4.13;;
25023;SDS011;13033;50.936;5.334;2023-12-20T14:07:56;16.05;;;3.92;;
25023;SDS011;13033;50.936;5.334;2023-12-20T14:10:25;20.17;;;4.25;;
25023;SDS011;13033;50.936;5.334;2023-12-20T14:12:52;15.48;;;3.80;;
25023;SDS011;13033;50.936;5.334;2023-12-20T14:15:19;17.50;;;4.70;;
25023;SDS011;13033;50.936;5.334;2023-12-20T14:17:44;12.82;;;4.55;;
25023;SDS011;13033;50.936;5.334;2023-12-20T14:20:10;14.13;;;4.00;;
25023;SDS011;13033;50.936;5.334;2023-12-20T14:22:39;11.90;;;3.60;;
25023;SDS011;13033;50.936;5.334;2023-12-20T14:25:10;15.93;;;3.50;;
25023;SDS011;13033;50.936;5.334;2023-12-20T14:27:37;16.98;;;4.03;;
25023;SDS011;13033;50.936;5.334;2023-12-20T14:30:04;17.65;;;3.92;;
25023;SDS011;13033;50.936;5.334;2023-12-20T14:32:31;13.02;;;3.92;;
25023;SDS011;13033;50.936;5.334;2023-12-20T14:34:56;16.25;;;3.90;;
25023;SDS011;13033;50.936;5.334;2023-12-20T14:37:23;14.52;;;4.10;;
25023;SDS011;13033;50.936;5.334;2023-12-20T14:39:48;23.35;;;4.97;;
25023;SDS011;13033;50.936;5.334;2023-12-20T14:42:14;21.10;;;4.35;;